Time;durP1;ratioP1;P1;durP2;ratioP2;P2;SDS_P1;SDS_P2;PMS_P1;PMS_P2;Temp;Humidity;BMP_temperature;BMP_pressure;BME280_temperature;BME280_humidity;BME280_pressure;Samples;Min_cycle;Max_cycle;Signal;HPM_P1;HPM_P2
2023/10/04 00:01:13;;;;;;;;;;;;;;;14.31;66.38;99052.25;5105212;28;19924;-63
2023/10/04 00:04:03;;;;;;;;;;;;;;;14.27;66.66;99059.44;5061370;28;19989;-63
2023/10/04 00:06:51;;;;;;;;;;;;;;;14.26;66.42;99061.38;5055905;28;20078;-64
2023/10/04 00:09:41;;;;;;;;;;;;;;;14.27;66.49;99067.63;5059248;28;20026;-63
2023/10/04 00:12:30;;;;;;;;;;;;;;;14.24;65.90;99073.72;5060715;28;19932;-63
2023/10/04 00:15:20;;;;;;;;;;;;;;;14.19;66.19;99076.56;5068053;28;19924;-63
2023/10/04 00:18:09;;;;;;;;;;;;;;;14.08;66.38;99078.72;5067165;28;20370;-63
2023/10/04 00:20:59;;;;;;;;;;;;;;;14.06;67.30;99075.47;5060635;28;19925;-63
2023/10/04 00:23:47;;;;;;;;;;;;;;;14.05;67.08;99071.91;5057606;28;19932;-63
2023/10/04 00:26:35;;;;;;;;;;;;;;;14.09;67.17;99075.66;5061256;28;20454;-63
2023/10/04 00:29:24;;;;;;;;;;;;;;;14.21;66.93;99079.78;5058365;28;19935;-63
2023/10/04 00:32:13;;;;;;;;;;;;;;;14.19;66.71;99076.56;5087493;28;20456;-63
2023/10/04 00:35:01;;;;;;;;;;;;;;;14.18;67.04;99083.97;5061108;28;19939;-63
2023/10/04 00:37:55;;;;;;;;;;;;;;;14.16;66.91;99088.91;5068103;28;20023;-63
2023/10/04 00:40:47;;;;;;;;;;;;;;;14.15;67.15;99082.63;5058050;28;19925;-63
2023/10/04 00:43:46;;;;;;;;;;;;;;;14.22;67.21;99086.88;5064020;28;20033;-63
2023/10/04 00:46:36;;;;;;;;;;;;;;;14.30;67.30;99086.16;5061159;28;19924;-63
2023/10/04 00:49:24;;;;;;;;;;;;;;;14.40;66.57;99083.22;5065757;28;19925;-63
2023/10/04 00:52:12;;;;;;;;;;;;;;;14.47;66.72;99093.72;5083885;28;19925;-63
2023/10/04 00:55:02;;;;;;;;;;;;;;;14.48;66.59;99090.69;5065706;28;20396;-63
2023/10/04 00:57:51;;;;;;;;;;;;;;;14.46;66.81;99097.56;5064657;28;20489;-63
2023/10/04 01:00:40;;;;;;;;;;;;;;;14.47;66.91;99096.44;5056023;28;19925;-63
2023/10/04 01:03:30;;;;;;;;;;;;;;;14.46;66.82;99098.38;5085446;28;19977;-63
2023/10/04 01:06:19;;;;;;;;;;;;;;;14.41;67.17;99103.97;5093618;28;19924;-63
2023/10/04 01:09:08;;;;;;;;;;;;;;;14.43;67.29;99098.97;5092833;28;19931;-63
2023/10/04 01:11:58;;;;;;;;;;;;;;;14.49;67.07;99094.25;5114458;27;19931;-63
2023/10/04 01:14:49;;;;;;;;;;;;;;;14.48;67.44;99101.63;5080108;28;19932;-63
2023/10/04 01:17:39;;;;;;;;;;;;;;;14.47;67.59;99100.03;5089654;28;19931;-63
2023/10/04 01:20:30;;;;;;;;;;;;;;;14.46;67.50;99097.56;5080307;28;19931;-63
2023/10/04 01:23:20;;;;;;;;;;;;;;;14.48;67.47;99092.63;5111288;27;19928;-63
2023/10/04 01:26:09;;;;;;;;;;;;;;;14.44;67.75;99092.41;5089199;28;19931;-63
2023/10/04 01:29:02;;;;;;;;;;;;;;;14.45;67.42;99082.28;5072066;28;19959;-63
2023/10/04 01:31:52;;;;;;;;;;;;;;;14.42;67.58;99078.22;5101119;28;19925;-63
2023/10/04 01:34:41;;;;;;;;;;;;;;;14.39;67.84;99076.94;5089503;28;20011;-63
2023/10/04 01:37:31;;;;;;;;;;;;;;;14.38;67.73;99078.06;5089727;28;19928;-63
2023/10/04 01:40:25;;;;;;;;;;;;;;;14.37;67.74;99083.81;5088498;28;19928;-63
2023/10/04 01:43:15;;;;;;;;;;;;;;;14.37;67.62;99079.16;5094548;28;19932;-63
2023/10/04 01:46:04;;;;;;;;;;;;;;;14.38;67.77;99082.69;5094560;28;19928;-63
2023/10/04 01:48:54;;;;;;;;;;;;;;;14.35;67.74;99075.13;5086307;28;20045;-63
2023/10/04 01:51:42;;;;;;;;;;;;;;;14.34;68.11;99084.44;5100262;27;19924;-63
2023/10/04 01:54:32;;;;;;;;;;;;;;;14.32;67.92;99087.47;5097526;28;20330;-63
2023/10/04 01:57:22;;;;;;;;;;;;;;;14.25;68.23;99087.09;5092209;28;19928;-63
2023/10/04 02:00:10;;;;;;;;;;;;;;;14.23;68.31;99077.59;5088095;28;20033;-63
2023/10/04 02:03:02;;;;;;;;;;;;;;;14.19;68.54;99087.50;5092886;28;19928;-63
2023/10/04 02:06:16;;;;;;;;;;;;;;;14.20;68.58;99086.38;5096123;28;19924;-63
2023/10/04 02:09:52;;;;;;;;;;;;;;;14.19;68.77;99087.50;5075749;28;19924;-63
2023/10/04 02:12:42;;;;;;;;;;;;;;;14.20;68.85;99086.38;5086641;28;20056;-63
2023/10/04 02:15:30;;;;;;;;;;;;;;;14.18;68.63;99092.16;5092442;28;19932;-63
2023/10/04 02:18:19;;;;;;;;;;;;;;;14.15;68.73;99092.75;5080615;28;20855;-63
2023/10/04 02:21:07;;;;;;;;;;;;;;;14.15;68.92;99092.75;5083308;28;19976;-63
2023/10/04 02:23:56;;;;;;;;;;;;;;;14.16;68.74;99088.91;5067528;28;20431;-63
2023/10/04 02:26:45;;;;;;;;;;;;;;;14.12;69.00;99091.47;5088847;28;20002;-63
2023/10/04 02:29:36;;;;;;;;;;;;;;;14.13;68.75;99095.00;5089519;28;20304;-63
2023/10/04 02:32:25;;;;;;;;;;;;;;;14.04;68.82;99094.91;5093421;28;19928;-63
2023/10/04 02:35:21;;;;;;;;;;;;;;;14.02;68.85;99102.59;5090963;28;20251;-63
2023/10/04 02:38:16;;;;;;;;;;;;;;;14.01;68.85;99095.53;5089798;28;20026;-63
2023/10/04 02:41:06;;;;;;;;;;;;;;;13.95;68.99;99096.72;5087751;28;20400;-63
2023/10/04 02:43:56;;;;;;;;;;;;;;;13.96;68.84;99095.63;5092563;28;20024;-63
2023/10/04 02:46:48;;;;;;;;;;;;;;;13.91;69.04;99098.47;5091491;28;20304;-63
2023/10/04 02:49:37;;;;;;;;;;;;;;;13.86;69.26;99098.56;5092961;28;20024;-63
2023/10/04 02:52:27;;;;;;;;;;;;;;;13.79;69.39;99098.94;5092914;28;20077;-63
2023/10/04 02:55:17;;;;;;;;;;;;;;;13.78;69.33;99104.72;5081432;28;19927;-63
2023/10/04 02:58:07;;;;;;;;;;;;;;;13.73;69.31;99113.00;5101122;28;20384;-63
2023/10/04 03:00:57;;;;;;;;;;;;;;;13.73;69.44;99113.00;5086593;28;20064;-63
2023/10/04 03:03:51;;;;;;;;;;;;;;;13.70;69.60;99113.63;5092246;28;20618;-63
2023/10/04 03:06:41;;;;;;;;;;;;;;;13.68;69.35;99111.19;5121536;27;19971;-63
2023/10/04 03:09:30;;;;;;;;;;;;;;;13.65;69.52;99111.81;5105750;27;19963;-63
2023/10/04 03:12:18;;;;;;;;;;;;;;;13.67;69.27;99108.75;5087216;28;19947;-63
2023/10/04 03:15:07;;;;;;;;;;;;;;;13.65;69.42;99119.19;5120431;27;19936;-63
2023/10/04 03:17:59;;;;;;;;;;;;;;;13.63;69.52;99111.28;5103315;28;19924;-63
2023/10/04 03:21:00;;;;;;;;;;;;;;;13.64;69.23;99115.66;5114520;27;19924;-63
2023/10/04 03:23:54;;;;;;;;;;;;;;;13.67;69.16;99122.41;5082563;28;19935;-63
2023/10/04 03:26:44;;;;;;;;;;;;;;;13.64;69.04;99123.84;5085483;28;20278;-63
2023/10/04 03:29:34;;;;;;;;;;;;;;;13.63;69.12;99119.47;5086099;28;20187;-63
2023/10/04 03:32:23;;;;;;;;;;;;;;;13.61;69.33;99121.72;5089914;28;20042;-63
2023/10/04 03:35:14;;;;;;;;;;;;;;;13.59;69.02;99118.47;5086245;28;19924;-65
2023/10/04 03:38:08;;;;;;;;;;;;;;;13.56;69.21;99119.88;5109605;27;20054;-63
2023/10/04 03:40:59;;;;;;;;;;;;;;;13.53;69.02;99122.38;5090346;28;19923;-63
2023/10/04 03:43:47;;;;;;;;;;;;;;;13.49;69.29;99113.19;5093588;28;20000;-63
2023/10/04 03:46:37;;;;;;;;;;;;;;;13.43;69.77;99117.13;5080062;28;19939;-63
2023/10/04 03:49:26;;;;;;;;;;;;;;;13.40;69.87;99124.00;5092529;28;19928;-63
2023/10/04 03:52:15;;;;;;;;;;;;;;;13.34;70.14;99122.47;5094391;28;19930;-63
2023/10/04 03:55:10;;;;;;;;;;;;;;;13.32;69.96;99124.69;5087408;28;19932;-63
2023/10/04 03:57:58;;;;;;;;;;;;;;;13.34;70.00;99117.00;5086539;28;19951;-63
2023/10/04 04:00:47;;;;;;;;;;;;;;;13.37;69.75;99110.97;5111141;27;20549;-63
2023/10/04 04:03:35;;;;;;;;;;;;;;;13.32;69.55;99106.41;5079842;28;19928;-63
2023/10/04 04:06:23;;;;;;;;;;;;;;;13.28;69.85;99115.47;5084491;28;19924;-63
2023/10/04 04:09:15;;;;;;;;;;;;;;;13.26;69.95;99112.22;5116803;27;20393;-63
2023/10/04 04:12:05;;;;;;;;;;;;;;;13.25;70.08;99113.34;5085053;28;20012;-63
2023/10/04 04:14:53;;;;;;;;;;;;;;;13.27;70.16;99113.88;5094516;28;19938;-63
2023/10/04 04:17:44;;;;;;;;;;;;;;;13.28;70.08;99115.47;5077582;28;20373;-63
2023/10/04 04:20:35;;;;;;;;;;;;;;;13.25;69.95;99114.16;5082909;28;19924;-63
2023/10/04 04:23:25;;;;;;;;;;;;;;;13.18;70.11;99116.44;5082316;28;19932;-63
2023/10/04 04:26:13;;;;;;;;;;;;;;;13.11;70.52;99122.28;5079229;28;19932;-63
2023/10/04 04:29:04;;;;;;;;;;;;;;;13.11;70.55;99118.75;5081610;28;20061;-63
2023/10/04 04:31:56;;;;;;;;;;;;;;;13.10;70.49;99114.38;5064034;28;19928;-62
2023/10/04 04:34:44;;;;;;;;;;;;;;;13.03;70.59;99111.22;5096755;28;19970;-63
2023/10/04 04:37:33;;;;;;;;;;;;;;;13.02;71.02;99104.97;5113116;27;20028;-63
2023/10/04 04:40:29;;;;;;;;;;;;;;;13.01;71.00;99100.63;5085141;28;19928;-63
2023/10/04 04:43:26;;;;;;;;;;;;;;;13.04;70.55;99102.72;5096981;28;19928;-63
2023/10/04 04:46:19;;;;;;;;;;;;;;;13.03;70.68;99106.56;5110671;27;19931;-63
2023/10/04 04:49:10;;;;;;;;;;;;;;;13.06;70.65;99116.91;5091582;28;20015;-63
2023/10/04 04:52:02;;;;;;;;;;;;;;;13.01;70.70;99122.44;5100106;28;19924;-63
2023/10/04 04:54:50;;;;;;;;;;;;;;;12.99;70.69;99116.44;5085820;28;19924;-63
2023/10/04 04:57:38;;;;;;;;;;;;;;;12.96;70.73;99116.25;5097978;28;19924;-63
2023/10/04 05:00:33;;;;;;;;;;;;;;;12.94;70.86;99119.25;5079362;28;19967;-63
2023/10/04 05:03:26;;;;;;;;;;;;;;;12.98;70.71;99124.94;5111850;27;19931;-63
2023/10/04 05:06:20;;;;;;;;;;;;;;;13.00;70.54;99129.00;5085209;28;19986;-63
2023/10/04 05:09:10;;;;;;;;;;;;;;;12.95;70.54;99137.28;5090419;28;19924;-63
2023/10/04 05:11:58;;;;;;;;;;;;;;;12.88;70.28;99131.38;5090496;28;19931;-63
2023/10/04 05:14:46;;;;;;;;;;;;;;;12.83;70.44;99129.53;5088430;28;19927;-64
2023/10/04 05:17:34;;;;;;;;;;;;;;;12.72;70.60;99132.69;5087557;28;19985;-63
2023/10/04 05:20:25;;;;;;;;;;;;;;;12.65;70.75;99132.28;5089961;28;20018;-63
2023/10/04 05:23:15;;;;;;;;;;;;;;;12.62;70.79;99143.75;5099483;28;20004;-64
2023/10/04 05:26:03;;;;;;;;;;;;;;;12.52;70.85;99145.53;5089944;28;19928;-64
2023/10/04 05:28:52;;;;;;;;;;;;;;;12.29;70.99;99146.38;5085377;28;19957;-63
2023/10/04 05:31:42;;;;;;;;;;;;;;;12.13;71.69;99140.31;5089744;28;20042;-65
2023/10/04 05:34:31;;;;;;;;;;;;;;;12.06;71.86;99142.59;5087490;28;19925;-66
2023/10/04 05:37:20;;;;;;;;;;;;;;;12.05;72.07;99140.97;5092793;28;20640;-65
2023/10/04 05:40:15;;;;;;;;;;;;;;;12.04;71.85;99133.91;5085025;28;19924;-67
2023/10/04 05:43:08;;;;;;;;;;;;;;;12.01;71.84;99135.28;5086599;28;19932;-68
2023/10/04 05:45:57;;;;;;;;;;;;;;;12.03;71.88;99129.53;5089771;28;20183;-66
2023/10/04 05:48:45;;;;;;;;;;;;;;;12.01;72.11;99129.84;5081599;28;19928;-66
2023/10/04 05:51:33;;;;;;;;;;;;;;;12.15;71.45;99135.41;5091708;28;20413;-67
2023/10/04 05:54:22;;;;;;;;;;;;;;;12.22;71.08;99141.28;5089895;28;19924;-66
2023/10/04 05:57:12;;;;;;;;;;;;;;;12.33;71.01;99147.44;5086098;28;20267;-66
2023/10/04 06:00:00;;;;;;;;;;;;;;;12.37;71.20;99144.94;5088479;28;19947;-66
2023/10/04 06:02:58;;;;;;;;;;;;;;;12.44;71.02;99157.09;5098237;27;20279;-66
2023/10/04 06:05:47;;;;;;;;;;;;;;;12.47;70.96;99153.78;5102661;27;19935;-66
2023/10/04 06:08:34;;;;;;;;;;;;;;;12.55;71.13;99161.28;5097521;28;19958;-66
2023/10/04 06:11:24;;;;;;;;;;;;;;;12.63;71.19;99161.75;5100389;28;19924;-66
2023/10/04 06:14:12;;;;;;;;;;;;;;;12.48;71.63;99160.03;5109017;28;19938;-66
2023/10/04 06:17:00;;;;;;;;;;;;;;;12.30;71.78;99158.91;5109700;28;19923;-66
2023/10/04 06:19:51;;;;;;;;;;;;;;;12.33;71.97;99152.88;5104379;28;19946;-66
2023/10/04 06:22:39;;;;;;;;;;;;;;;12.46;71.65;99156.78;5101689;28;20008;-71
2023/10/04 06:25:31;;;;;;;;;;;;;;;12.51;71.47;99162.16;5103510;28;19939;-66
2023/10/04 06:28:21;;;;;;;;;;;;;;;12.53;71.56;99158.06;5107924;27;19931;-66
2023/10/04 06:31:09;;;;;;;;;;;;;;;12.56;71.81;99162.91;5107675;28;19923;-66
2023/10/04 06:33:58;;;;;;;;;;;;;;;12.61;71.96;99174.84;5101859;27;19927;-66
2023/10/04 06:36:47;;;;;;;;;;;;;;;12.61;72.17;99175.66;5092168;28;19935;-66
2023/10/04 06:39:35;;;;;;;;;;;;;;;12.64;72.41;99182.47;5092822;28;19923;-66
2023/10/04 06:42:23;;;;;;;;;;;;;;;12.69;72.63;99177.75;5109166;27;19974;-66
2023/10/04 06:45:13;;;;;;;;;;;;;;;12.75;72.79;99189.38;5104508;28;19924;-66
2023/10/04 06:48:01;;;;;;;;;;;;;;;12.71;72.55;99180.97;5099292;27;20373;-66
2023/10/04 06:50:50;;;;;;;;;;;;;;;12.79;72.64;99176.78;5097456;27;19934;-66
2023/10/04 06:53:41;;;;;;;;;;;;;;;12.72;72.50;99182.59;5106698;27;20326;-66
2023/10/04 06:56:29;;;;;;;;;;;;;;;12.72;72.57;99182.59;5102487;28;19924;-66
2023/10/04 06:59:17;;;;;;;;;;;;;;;12.71;72.66;99180.16;5096669;28;19928;-66
2023/10/04 07:02:07;;;;;;;;;;;;;;;12.73;72.75;99181.50;5111947;27;19946;-66
2023/10/04 07:04:57;;;;;;;;;;;;;;;12.77;72.78;99190.69;5104931;27;21334;-66
2023/10/04 07:07:47;;;;;;;;;;;;;;;12.76;72.78;99194.53;5111493;28;19934;-66
2023/10/04 07:10:36;;;;;;;;;;;;;;;12.75;72.98;99200.28;5103233;28;19931;-66
2023/10/04 07:13:24;;;;;;;;;;;;;;;12.71;73.06;99196.53;5109018;27;19923;-66
2023/10/04 07:16:12;;;;;;;;;;;;;;;12.65;73.12;99200.44;5108424;27;20011;-67
2023/10/04 07:19:03;;;;;;;;;;;;;;;12.70;73.51;99208.53;5115055;27;20065;-66
2023/10/04 07:21:51;;;;;;;;;;;;;;;12.79;73.35;99204.06;5104852;28;19942;-67
2023/10/04 07:24:40;;;;;;;;;;;;;;;12.92;73.33;99203.31;5106729;28;20521;-66
2023/10/04 07:27:32;;;;;;;;;;;;;;;12.98;73.17;99202.13;5109798;28;20369;-67
2023/10/04 07:30:20;;;;;;;;;;;;;;;13.04;72.99;99200.94;5112647;28;20304;-66
2023/10/04 07:33:08;;;;;;;;;;;;;;;13.09;73.18;99205.53;5114595;28;19930;-68
2023/10/04 07:35:57;;;;;;;;;;;;;;;13.19;73.24;99207.28;5108160;28;19935;-67
2023/10/04 07:38:45;;;;;;;;;;;;;;;13.24;72.71;99213.50;5097096;28;19951;-66
2023/10/04 07:41:33;;;;;;;;;;;;;;;13.26;72.87;99213.19;5101109;28;19928;-66
2023/10/04 07:44:24;;;;;;;;;;;;;;;13.24;73.00;99221.69;5102349;28;19924;-66
2023/10/04 07:47:12;;;;;;;;;;;;;;;13.27;72.70;99220.31;5098942;28;19932;-66
2023/10/04 07:50:00;;;;;;;;;;;;;;;13.32;72.86;99222.97;5106797;28;19928;-66
2023/10/04 07:52:51;;;;;;;;;;;;;;;13.29;72.62;99226.25;5100654;28;20022;-66
2023/10/04 07:55:40;;;;;;;;;;;;;;;13.24;72.75;99226.34;5099292;28;19931;-66
2023/10/04 07:58:28;;;;;;;;;;;;;;;13.23;73.06;99225.53;5110454;27;19992;-66
2023/10/04 08:01:17;;;;;;;;;;;;;;;13.32;73.68;99228.41;5115348;27;19924;-65
2023/10/04 08:04:07;;;;;;;;;;;;;;;13.47;73.15;99219.94;5108578;27;20010;-66
2023/10/04 08:06:55;;;;;;;;;;;;;;;13.51;72.99;99220.97;5106892;27;19947;-65
2023/10/04 08:09:45;;;;;;;;;;;;;;;13.62;72.68;99216.97;5102904;27;19928;-66
2023/10/04 08:12:34;;;;;;;;;;;;;;;13.68;72.58;99225.06;5103984;28;19932;-66
2023/10/04 08:15:22;;;;;;;;;;;;;;;13.77;72.44;99215.09;5093978;28;19924;-65
2023/10/04 08:18:13;;;;;;;;;;;;;;;13.80;72.07;99215.31;5104440;28;20300;-66
2023/10/04 08:21:04;;;;;;;;;;;;;;;13.87;71.39;99217.66;5109529;27;20399;-65
2023/10/04 08:23:53;;;;;;;;;;;;;;;13.94;71.25;99222.72;5109120;28;20014;-66
2023/10/04 08:26:43;;;;;;;;;;;;;;;14.00;70.82;99221.50;5111586;27;20274;-66
2023/10/04 08:29:34;;;;;;;;;;;;;;;13.98;70.35;99213.59;5114276;27;20396;-66
2023/10/04 08:32:23;;;;;;;;;;;;;;;14.04;71.00;99217.88;5107571;27;19935;-65
2023/10/04 08:35:21;;;;;;;;;;;;;;;14.13;70.64;99217.97;5106643;28;19938;-66
2023/10/04 08:38:09;;;;;;;;;;;;;;;14.18;70.06;99214.34;5104629;27;20000;-66
2023/10/04 08:40:59;;;;;;;;;;;;;;;14.15;69.78;99213.81;5114145;27;20031;-66
2023/10/04 08:43:50;;;;;;;;;;;;;;;14.25;69.73;99212.00;5109241;27;19924;-66
2023/10/04 08:46:40;;;;;;;;;;;;;;;14.31;69.93;99213.53;5114502;27;19924;-66
2023/10/04 08:49:29;;;;;;;;;;;;;;;14.36;69.13;99221.63;5110228;27;19935;-65
2023/10/04 08:52:20;;;;;;;;;;;;;;;14.44;68.90;99210.00;5101109;27;19946;-66
2023/10/04 08:55:13;;;;;;;;;;;;;;;14.51;67.56;99218.63;5110014;28;19950;-65
2023/10/04 08:58:01;;;;;;;;;;;;;;;14.51;66.18;99213.16;5108136;27;20583;-65
2023/10/04 09:00:50;;;;;;;;;;;;;;;14.53;66.21;99205.44;5105251;27;19964;-66
2023/10/04 09:03:40;;;;;;;;;;;;;;;14.60;66.17;99211.31;5103828;27;20016;-66
2023/10/04 09:06:28;;;;;;;;;;;;;;;14.73;66.66;99200.66;5105579;27;19927;-67
2023/10/04 09:09:18;;;;;;;;;;;;;;;14.79;65.66;99199.41;5104596;27;19932;-66
2023/10/04 09:12:06;;;;;;;;;;;;;;;14.87;65.88;99195.97;5089134;28;19928;-66
2023/10/04 09:14:55;;;;;;;;;;;;;;;14.98;65.41;99185.59;5106549;28;19981;-66
2023/10/04 09:17:47;;;;;;;;;;;;;;;15.02;64.82;99197.53;5108385;28;20017;-66
2023/10/04 09:20:36;;;;;;;;;;;;;;;15.11;64.44;99188.28;5111478;27;20325;-66
2023/10/04 09:23:27;;;;;;;;;;;;;;;15.24;64.06;99183.06;5103305;27;19928;-66
2023/10/04 09:26:16;;;;;;;;;;;;;;;15.30;62.65;99187.31;5107512;27;19927;-66
2023/10/04 09:29:05;;;;;;;;;;;;;;;15.27;60.83;99191.47;5101691;27;19931;-66
2023/10/04 09:31:55;;;;;;;;;;;;;;;15.29;61.02;99180.22;5101574;27;20039;-66
2023/10/04 09:34:54;;;;;;;;;;;;;;;15.30;59.96;99181.81;5098477;27;19924;-65
2023/10/04 09:37:44;;;;;;;;;;;;;;;15.27;59.16;99177.78;5105997;27;20016;-65
2023/10/04 09:40:32;;;;;;;;;;;;;;;15.32;59.65;99179.56;5099797;27;19939;-66
2023/10/04 09:43:31;;;;;;;;;;;;;;;15.37;59.90;99183.00;5101408;28;19977;-64
2023/10/04 09:46:21;;;;;;;;;;;;;;;15.43;59.30;99183.69;5105761;28;19928;-65
2023/10/04 09:49:09;;;;;;;;;;;;;;;15.56;59.68;99188.28;5105278;28;19939;-65
2023/10/04 09:52:00;;;;;;;;;;;;;;;15.64;58.34;99190.28;5107496;27;19933;-63
2023/10/04 09:54:48;;;;;;;;;;;;;;;15.71;58.26;99185.19;5123324;27;19923;-63
2023/10/04 09:57:37;;;;;;;;;;;;;;;15.68;57.04;99174.03;5116783;27;20025;-64
2023/10/04 10:00:25;;;;;;;;;;;;;;;15.80;56.75;99178.94;5113347;27;19939;-63
2023/10/04 10:03:14;;;;;;;;;;;;;;;15.87;56.74;99182.03;5106449;27;19924;-63
2023/10/04 10:06:02;;;;;;;;;;;;;;;15.94;56.21;99187.88;5111278;27;19955;-63
2023/10/04 10:08:53;;;;;;;;;;;;;;;15.89;53.85;99186.06;5098942;27;19934;-63
2023/10/04 10:11:41;;;;;;;;;;;;;;;15.88;54.00;99175.44;5115392;27;19930;-64
2023/10/04 10:14:29;;;;;;;;;;;;;;;15.89;53.75;99179.78;5112985;27;19930;-63
2023/10/04 10:17:17;;;;;;;;;;;;;;;15.89;54.21;99188.00;5101684;27;19928;-63
2023/10/04 10:20:09;;;;;;;;;;;;;;;15.78;54.32;99183.94;5099129;27;20034;-63
2023/10/04 10:23:16;;;;;;;;;;;;;;;15.67;53.95;99183.38;5106872;27;19930;-63
2023/10/04 10:26:19;;;;;;;;;;;;;;;15.62;53.51;99181.56;5104409;27;19924;-63
2023/10/04 10:29:08;;;;;;;;;;;;;;;15.66;53.22;99179.03;5122388;27;19938;-64
2023/10/04 10:31:56;;;;;;;;;;;;;;;15.69;53.24;99173.72;5106886;27;20403;-64
2023/10/04 10:34:44;;;;;;;;;;;;;;;15.69;51.69;99170.19;5093359;28;19931;-64
2023/10/04 10:37:38;;;;;;;;;;;;;;;15.66;51.13;99168.09;5096717;28;19925;-63
2023/10/04 10:40:32;;;;;;;;;;;;;;;15.60;51.23;99166.53;5105244;28;20013;-64
2023/10/04 10:43:21;;;;;;;;;;;;;;;15.65;51.26;99153.53;5096476;27;20399;-64
2023/10/04 10:46:28;;;;;;;;;;;;;;;15.75;52.50;99154.41;5102745;28;19924;-64
2023/10/04 10:49:31;;;;;;;;;;;;;;;15.87;52.21;99154.63;5095602;28;19924;-64
2023/10/04 10:52:24;;;;;;;;;;;;;;;15.95;51.12;99153.88;5104205;27;19927;-63
2023/10/04 10:55:16;;;;;;;;;;;;;;;16.04;52.13;99157.44;5098962;27;20397;-63
2023/10/04 10:58:04;;;;;;;;;;;;;;;16.11;52.27;99155.03;5112591;27;19930;-63
2023/10/04 11:00:53;;;;;;;;;;;;;;;16.12;52.42;99153.91;5108274;27;19930;-62
2023/10/04 11:03:44;;;;;;;;;;;;;;;16.21;53.08;99151.22;5106250;27;20075;-62
2023/10/04 11:06:32;;;;;;;;;;;;;;;16.29;52.16;99153.16;5112327;27;20015;-63
2023/10/04 11:09:21;;;;;;;;;;;;;;;16.36;50.42;99161.75;5111171;27;20318;-62
2023/10/04 11:12:27;;;;;;;;;;;;;;;16.46;51.54;99155.97;5105182;27;19932;-63
2023/10/04 11:15:17;;;;;;;;;;;;;;;16.44;51.63;99151.91;5104930;27;19924;-62
2023/10/04 11:18:07;;;;;;;;;;;;;;;16.35;51.75;99148.34;5117746;27;19924;-62
2023/10/04 11:21:00;;;;;;;;;;;;;;;16.24;50.70;99147.81;5100831;27;19924;-63
2023/10/04 11:23:48;;;;;;;;;;;;;;;16.20;51.32;99144.94;5105092;28;19939;-63
2023/10/04 11:26:39;;;;;;;;;;;;;;;16.15;50.62;99131.38;5114204;28;19927;-62
2023/10/04 11:29:27;;;;;;;;;;;;;;;16.11;50.18;99133.13;5111918;28;20237;-63
2023/10/04 11:32:15;;;;;;;;;;;;;;;16.15;50.51;99130.56;5110899;27;19923;-63
2023/10/04 11:35:08;;;;;;;;;;;;;;;16.18;48.89;99135.38;5115184;27;19963;-62
2023/10/04 11:37:57;;;;;;;;;;;;;;;16.24;49.58;99129.47;5114146;27;20287;-62
2023/10/04 11:40:46;;;;;;;;;;;;;;;16.29;49.59;99130.41;5108402;27;19949;-63
2023/10/04 11:43:34;;;;;;;;;;;;;;;16.39;51.65;99132.84;5113054;27;19924;-62
2023/10/04 11:46:23;;;;;;;;;;;;;;;16.47;51.05;99134.81;5112537;27;19928;-62
2023/10/04 11:49:11;;;;;;;;;;;;;;;16.59;48.75;99134.19;5119099;27;19946;-63
2023/10/04 11:52:01;;;;;;;;;;;;;;;16.62;48.32;99122.56;5114296;27;20376;-62
2023/10/04 11:54:49;;;;;;;;;;;;;;;16.54;49.84;99124.19;5106332;27;20388;-63
2023/10/04 11:57:39;;;;;;;;;;;;;;;16.49;50.27;99118.84;5101846;28;19935;-62
2023/10/04 12:00:28;;;;;;;;;;;;;;;16.53;50.96;99108.84;5105247;28;19923;-62
2023/10/04 12:03:16;;;;;;;;;;;;;;;16.47;51.49;99104.66;5108289;28;20380;-62
2023/10/04 12:06:04;;;;;;;;;;;;;;;16.43;51.62;99103.66;5098577;28;19977;-62
2023/10/04 12:08:55;;;;;;;;;;;;;;;16.46;51.84;99092.88;5111124;28;19980;-62
2023/10/04 12:11:43;;;;;;;;;;;;;;;16.50;51.43;99093.81;5111556;28;19931;-62
2023/10/04 12:14:32;;;;;;;;;;;;;;;16.55;51.03;99079.16;5094748;28;20045;-62
2023/10/04 12:17:20;;;;;;;;;;;;;;;16.57;49.92;99079.66;5107705;28;19931;-62
2023/10/04 12:20:11;;;;;;;;;;;;;;;16.52;49.95;99081.75;5105993;28;19950;-62
2023/10/04 12:23:01;;;;;;;;;;;;;;;16.47;50.03;99079.97;5108954;28;19931;-63
2023/10/04 12:25:51;;;;;;;;;;;;;;;16.41;49.81;99079.31;5108728;28;19943;-63
2023/10/04 12:28:39;;;;;;;;;;;;;;;16.33;50.06;99079.28;5111498;28;20028;-62
2023/10/04 12:31:27;;;;;;;;;;;;;;;16.31;50.57;99076.06;5104239;28;20012;-62
2023/10/04 12:34:18;;;;;;;;;;;;;;;16.28;50.58;99079.44;5109044;28;19958;-62
2023/10/04 12:37:06;;;;;;;;;;;;;;;16.24;50.42;99074.63;5094104;28;19924;-62
2023/10/04 12:39:55;;;;;;;;;;;;;;;16.28;51.29;99074.75;5105302;28;19924;-62
2023/10/04 12:42:48;;;;;;;;;;;;;;;16.34;51.64;99078.97;5106793;28;19972;-62
2023/10/04 12:45:36;;;;;;;;;;;;;;;16.39;49.60;99067.84;5100557;28;19928;-63
2023/10/04 12:48:24;;;;;;;;;;;;;;;16.41;48.75;99073.03;5106124;28;19977;-62
2023/10/04 12:51:12;;;;;;;;;;;;;;;16.39;48.29;99072.53;5106294;28;19927;-62
2023/10/04 12:54:00;;;;;;;;;;;;;;;16.42;49.95;99074.63;5105887;28;20078;-62
2023/10/04 12:56:50;;;;;;;;;;;;;;;16.47;49.12;99071.72;5103293;28;19924;-63
2023/10/04 12:59:42;;;;;;;;;;;;;;;16.49;48.96;99063.97;5105040;28;19928;-62
2023/10/04 13:02:31;;;;;;;;;;;;;;;16.54;47.53;99054.78;5101063;28;19931;-62
2023/10/04 13:05:21;;;;;;;;;;;;;;;16.60;47.08;99053.50;5100796;28;19932;-62
2023/10/04 13:08:09;;;;;;;;;;;;;;;16.60;46.69;99051.56;5103095;28;19931;-62
2023/10/04 13:10:58;;;;;;;;;;;;;;;16.63;47.58;99047.38;5095729;28;19939;-62
2023/10/04 13:13:46;;;;;;;;;;;;;;;16.68;46.81;99048.00;5107740;28;19927;-62
2023/10/04 13:16:35;;;;;;;;;;;;;;;16.71;46.03;99039.16;5105724;28;20455;-62
2023/10/04 13:19:23;;;;;;;;;;;;;;;16.76;44.16;99041.72;5104004;28;19976;-63
2023/10/04 13:22:12;;;;;;;;;;;;;;;16.76;42.38;99041.72;5105693;28;20000;-62
2023/10/04 13:25:03;;;;;;;;;;;;;;;16.73;42.22;99042.41;5106682;28;20401;-62
2023/10/04 13:27:52;;;;;;;;;;;;;;;16.76;43.41;99043.66;5107025;28;19928;-62
2023/10/04 13:30:41;;;;;;;;;;;;;;;16.74;44.48;99037.72;5109184;28;19928;-62
2023/10/04 13:33:30;;;;;;;;;;;;;;;16.77;45.03;99042.53;5096881;28;19976;-62
2023/10/04 13:36:18;;;;;;;;;;;;;;;16.81;45.13;99046.25;5101522;28;19927;-62
2023/10/04 13:39:07;;;;;;;;;;;;;;;16.89;45.01;99052.88;5107051;28;19947;-62
2023/10/04 13:41:55;;;;;;;;;;;;;;;16.87;44.81;99052.38;5106374;28;19931;-62
2023/10/04 13:44:44;;;;;;;;;;;;;;;16.82;45.09;99041.56;5101983;28;19927;-62
2023/10/04 13:47:31;;;;;;;;;;;;;;;16.80;45.62;99052.06;5104457;28;20018;-62
2023/10/04 13:50:24;;;;;;;;;;;;;;;16.85;45.87;99049.16;5105167;28;19931;-64
2023/10/04 13:53:12;;;;;;;;;;;;;;;16.87;46.00;99046.88;5103808;28;19924;-62
2023/10/04 13:56:01;;;;;;;;;;;;;;;16.85;45.08;99055.44;5102840;28;20377;-62
2023/10/04 13:58:50;;;;;;;;;;;;;;;16.87;45.88;99049.63;5108211;28;20006;-62
2023/10/04 14:01:41;;;;;;;;;;;;;;;16.91;46.63;99054.16;5108679;28;20038;-62
2023/10/04 14:04:29;;;;;;;;;;;;;;;16.93;46.28;99051.06;5103381;28;19927;-62
2023/10/04 14:07:20;;;;;;;;;;;;;;;16.94;46.44;99052.72;5107423;28;19924;-62
2023/10/04 14:10:10;;;;;;;;;;;;;;;16.91;46.27;99053.34;5108989;28;19927;-62
2023/10/04 14:12:58;;;;;;;;;;;;;;;16.82;46.51;99060.78;5099270;28;19924;-62
2023/10/04 14:15:50;;;;;;;;;;;;;;;16.73;46.62;99042.41;5102719;28;19969;-62
2023/10/04 14:18:42;;;;;;;;;;;;;;;16.72;46.99;99051.75;5096965;28;19936;-62
2023/10/04 14:21:30;;;;;;;;;;;;;;;16.68;45.84;99053.50;5096508;28;19924;-62
2023/10/04 14:24:20;;;;;;;;;;;;;;;16.58;45.91;99037.38;5107388;28;19946;-62
2023/10/04 14:27:08;;;;;;;;;;;;;;;16.58;46.28;99034.63;5104946;28;19927;-62
2023/10/04 14:29:56;;;;;;;;;;;;;;;16.62;46.88;99024.63;5103041;28;19932;-62
2023/10/04 14:32:44;;;;;;;;;;;;;;;16.68;46.80;99030.75;5102265;28;19923;-62
2023/10/04 14:35:32;;;;;;;;;;;;;;;16.71;46.59;99021.88;5109035;28;19935;-62
2023/10/04 14:38:20;;;;;;;;;;;;;;;16.72;46.66;99010.59;5104493;27;19978;-63
2023/10/04 14:41:09;;;;;;;;;;;;;;;16.73;46.95;99008.66;5098302;27;19928;-62
2023/10/04 14:43:59;;;;;;;;;;;;;;;16.74;47.38;99015.75;5103163;28;19931;-62
2023/10/04 14:46:48;;;;;;;;;;;;;;;16.72;47.29;98996.88;5094687;28;19924;-62